Time;durP1;ratioP1;P1;durP2;ratioP2;P2;SDS_P1;SDS_P2;PMS_P1;PMS_P2;Temp;Humidity;BMP_temperature;BMP_pressure;BME280_temperature;BME280_humidity;BME280_pressure;Samples;Min_cycle;Max_cycle;Signal;HPM_P1;HPM_P2
2022/12/31 00:04:29;;;;;;;8.15;3.10;;;;;;;3.13;95.44;100246.66;10486448;28;20041;-85
2022/12/31 00:09:31;;;;;;;4.88;3.17;;;;;;;2.90;95.72;100262.97;10452679;28;20052;-86
2022/12/31 00:14:34;;;;;;;6.03;3.40;;;;;;;2.88;95.59;100262.38;10488972;28;20411;-86
2022/12/31 00:19:36;;;;;;;7.07;3.30;;;;;;;2.75;95.93;100259.94;10495178;28;20036;-85
2022/12/31 00:24:38;;;;;;;4.95;3.00;;;;;;;2.83;96.31;100271.25;10469688;28;20499;-84
2022/12/31 00:29:41;;;;;;;6.40;3.15;;;;;;;2.67;96.16;100264.69;10469923;28;20395;-84
2022/12/31 00:34:43;;;;;;;7.05;3.60;;;;;;;2.71;96.25;100268.56;10501867;28;20067;-84
2022/12/31 00:39:45;;;;;;;8.48;3.67;;;;;;;2.76;96.54;100278.66;10525986;28;20056;-84
2022/12/31 00:44:47;;;;;;;7.45;3.75;;;;;;;2.74;96.97;100283.50;10526805;28;20041;-85
2022/12/31 00:49:50;;;;;;;8.40;3.50;;;;;;;2.77;96.14;100280.31;10509247;28;20419;-83
2022/12/31 00:54:52;;;;;;;13.00;4.20;;;;;;;2.73;96.51;100274.56;10513839;28;20083;-84
2022/12/31 00:59:54;;;;;;;6.30;3.58;;;;;;;2.86;95.91;100278.06;10484877;28;20499;-83
2022/12/31 01:04:56;;;;;;;7.35;3.30;;;;;;;2.79;96.38;100289.06;10496501;28;20055;-83
2022/12/31 01:09:59;;;;;;;7.68;3.80;;;;;;;2.79;95.62;100283.63;10482817;28;20048;-82
2022/12/31 01:15:01;;;;;;;7.78;3.90;;;;;;;2.82;95.26;100285.84;10513411;28;20061;-81
2022/12/31 01:20:04;;;;;;;7.70;4.07;;;;;;;2.80;95.23;100287.97;10484778;28;20045;-82
2022/12/31 01:25:06;;;;;;;6.53;3.55;;;;;;;2.73;95.25;100296.22;10492951;28;20496;-82
2022/12/31 01:30:09;;;;;;;6.10;3.30;;;;;;;2.69;96.02;100295.06;10492962;28;20040;-81
2022/12/31 01:35:12;;;;;;;8.32;3.58;;;;;;;2.61;96.24;100287.31;10495736;28;20054;-82
2022/12/31 01:40:14;;;;;;;7.43;3.85;;;;;;;2.65;95.95;100293.06;10491284;28;20048;-82
2022/12/31 01:45:16;;;;;;;7.28;3.33;;;;;;;2.64;95.64;100294.97;10530454;28;20081;-81
2022/12/31 01:50:47;;;;;;;10.05;3.90;;;;;;;2.63;96.52;100297.91;10526952;28;20052;-81
2022/12/31 01:55:56;;;;;;;9.02;4.13;;;;;;;2.50;96.87;100301.69;10515697;28;20056;-80
2022/12/31 02:00:59;;;;;;;10.50;3.80;;;;;;;2.52;96.51;100310.38;10477800;28;20040;-81
2022/12/31 02:06:14;;;;;;;7.63;3.65;;;;;;;2.68;96.47;100309.66;10491259;28;20423;-81
2022/12/31 02:11:37;;;;;;;8.13;3.92;;;;;;;2.62;95.99;100307.91;10513192;28;20507;-80
2022/12/31 02:16:48;;;;;;;6.75;3.20;;;;;;;2.52;96.61;100304.97;10529970;28;20056;-80
2022/12/31 02:22:04;;;;;;;7.38;3.58;;;;;;;2.53;95.70;100308.50;10525333;28;20048;-80
2022/12/31 02:27:46;;;;;;;5.63;3.15;;;;;;;2.78;95.38;100310.94;10512630;28;20054;-80
2022/12/31 02:33:21;;;;;;;6.63;3.22;;;;;;;2.78;95.00;100308.22;10531057;28;20537;-80
2022/12/31 02:38:24;;;;;;;6.38;3.47;;;;;;;2.79;95.27;100326.16;10511912;28;20044;-80
2022/12/31 02:43:27;;;;;;;7.03;3.40;;;;;;;2.78;94.41;100324.47;10508703;28;20037;-80
2022/12/31 02:48:38;;;;;;;5.47;2.60;;;;;;;2.85;94.87;100320.59;10528182;28;20036;-79
2022/12/31 02:54:09;;;;;;;4.97;2.72;;;;;;;2.74;94.82;100318.72;10491446;28;20053;-79
2022/12/31 03:04:50;;;;;;;5.35;2.55;;;;;;;2.68;94.91;100327.81;10518416;28;20044;-80
2022/12/31 03:09:53;;;;;;;5.53;2.53;;;;;;;2.60;94.65;100337.13;10521927;28;20055;-79
2022/12/31 03:14:56;;;;;;;4.82;2.40;;;;;;;2.57;94.82;100328.63;10498811;28;20048;-78
2022/12/31 03:25:34;;;;;;;6.45;2.80;;;;;;;2.56;94.53;100330.50;10491678;28;20044;-78
2022/12/31 03:30:39;;;;;;;4.97;2.47;;;;;;;2.49;95.16;100326.28;10504655;28;20045;-78
2022/12/31 03:35:43;;;;;;;5.10;2.63;;;;;;;2.51;95.88;100330.41;10508081;28;20490;-79
2022/12/31 03:40:48;;;;;;;3.90;2.25;;;;;;;2.56;95.75;100333.22;10512407;28;20048;-78
2022/12/31 03:45:52;;;;;;;3.90;2.30;;;;;;;2.53;95.65;100322.88;10487233;28;20060;-78
2022/12/31 03:50:55;;;;;;;4.22;1.95;;;;;;;2.55;95.34;100309.91;10487179;28;20499;-78
2022/12/31 03:55:57;;;;;;;2.78;1.80;;;;;;;2.59;96.16;100305.66;10486477;28;20059;-79
2022/12/31 04:00:59;;;;;;;3.35;1.90;;;;;;;2.54;96.06;100305.56;10508319;28;20529;-78
2022/12/31 04:06:01;;;;;;;4.50;2.15;;;;;;;2.49;96.03;100307.34;10509451;28;20037;-78
2022/12/31 04:11:04;;;;;;;2.50;1.55;;;;;;;2.51;95.58;100322.28;10523270;28;20040;-78
2022/12/31 04:16:06;;;;;;;3.83;2.10;;;;;;;2.43;95.15;100317.22;10510992;28;20040;-78
2022/12/31 04:21:08;;;;;;;3.90;1.80;;;;;;;2.49;95.80;100316.28;10521974;28;20040;-78
2022/12/31 04:26:11;;;;;;;2.13;1.65;;;;;;;2.41;95.17;100314.72;10496192;28;20041;-78
2022/12/31 04:31:13;;;;;;;2.33;1.70;;;;;;;2.40;95.29;100318.50;10521018;28;20048;-77
2022/12/31 04:36:15;;;;;;;1.73;1.35;;;;;;;2.31;95.04;100321.81;10511588;28;20538;-78
2022/12/31 04:41:18;;;;;;;2.63;1.55;;;;;;;2.23;94.59;100317.56;10491913;28;20553;-78
2022/12/31 04:46:24;;;;;;;2.90;1.48;;;;;;;2.23;94.93;100311.31;10515087;28;20048;-78
2022/12/31 04:51:27;;;;;;;1.58;1.17;;;;;;;2.28;95.15;100312.28;10510017;28;20049;-79
2022/12/31 04:56:30;;;;;;;2.83;1.60;;;;;;;2.38;94.88;100298.13;10520568;28;20051;-75
2022/12/31 05:01:32;;;;;;;3.38;1.05;;;;;;;2.30;94.14;100295.78;10478882;28;20151;-77
2022/12/31 05:06:34;;;;;;;1.98;0.90;;;;;;;2.18;94.24;100284.13;10524390;28;20044;-76
2022/12/31 05:11:37;;;;;;;0.77;0.75;;;;;;;2.25;93.72;100279.41;10507408;28;20056;-79
2022/12/31 05:16:39;;;;;;;1.35;0.80;;;;;;;2.33;93.35;100279.91;10493218;28;20047;-76
2022/12/31 05:21:42;;;;;;;1.77;1.00;;;;;;;2.47;93.60;100277.78;10530474;28;20044;-78
2022/12/31 05:26:45;;;;;;;2.92;1.23;;;;;;;2.47;93.66;100266.94;10524846;28;20036;-78
2022/12/31 05:31:47;;;;;;;2.63;1.20;;;;;;;2.48;93.10;100270.47;10518868;28;20044;-77
2022/12/31 05:36:49;;;;;;;1.48;1.10;;;;;;;2.55;93.70;100271.16;10515214;28;20364;-77
2022/12/31 05:41:51;;;;;;;3.72;1.33;;;;;;;2.55;93.00;100252.22;10475000;28;20053;-76
2022/12/31 05:46:54;;;;;;;2.65;1.00;;;;;;;2.62;93.32;100261.88;10506395;28;20546;-76
2022/12/31 05:51:56;;;;;;;2.03;1.20;;;;;;;2.54;92.41;100264.94;10513601;28;20041;-75
2022/12/31 05:56:58;;;;;;;1.73;1.23;;;;;;;2.54;93.16;100255.97;10513996;28;20041;-78
2022/12/31 06:02:00;;;;;;;1.63;1.10;;;;;;;2.50;92.66;100257.53;10527187;28;20048;-78
2022/12/31 06:07:03;;;;;;;2.17;1.13;;;;;;;2.52;92.32;100256.22;10515662;28;20037;-78
2022/12/31 06:12:05;;;;;;;1.90;1.40;;;;;;;2.58;92.18;100260.69;10514862;28;20044;-78
2022/12/31 06:17:08;;;;;;;3.47;2.10;;;;;;;2.51;92.24;100259.16;10527517;28;20056;-77
2022/12/31 06:22:11;;;;;;;2.55;2.22;;;;;;;2.46;92.71;100254.47;10502026;28;20071;-78
2022/12/31 06:27:13;;;;;;;2.13;1.80;;;;;;;2.46;91.99;100259.06;10522443;28;20056;-77
2022/12/31 06:32:16;;;;;;;2.78;1.73;;;;;;;2.51;92.93;100262.69;10490355;28;20057;-76
2022/12/31 06:37:18;;;;;;;2.22;1.85;;;;;;;2.50;92.24;100257.53;10514444;28;20060;-78
2022/12/31 06:42:20;;;;;;;1.98;1.38;;;;;;;2.45;93.07;100252.81;10523844;28;20032;-78
2022/12/31 06:47:23;;;;;;;3.90;1.40;;;;;;;2.53;92.72;100252.44;10529199;28;20530;-78
2022/12/31 06:52:25;;;;;;;2.15;1.15;;;;;;;2.69;92.86;100240.88;10529536;28;20040;-77
2022/12/31 06:57:28;;;;;;;2.13;1.30;;;;;;;2.51;92.64;100245.63;10526527;28;20088;-77
2022/12/31 07:03:01;;;;;;;2.83;1.60;;;;;;;2.44;92.68;100236.81;10525047;28;20404;-77
2022/12/31 07:08:28;;;;;;;1.63;1.08;;;;;;;2.49;92.15;100237.75;10512280;28;20049;-74
2022/12/31 07:13:57;;;;;;;1.08;0.98;;;;;;;2.49;92.58;100240.44;10523367;28;20414;-74
2022/12/31 07:19:38;;;;;;;4.03;1.25;;;;;;;2.48;92.83;100233.38;10520212;28;20033;-77
2022/12/31 07:24:42;;;;;;;2.05;1.10;;;;;;;2.45;92.54;100233.88;10521448;28;20041;-73
2022/12/31 07:30:01;;;;;;;1.95;1.10;;;;;;;2.55;92.83;100217.00;10509368;28;20052;-73
2022/12/31 07:35:21;;;;;;;3.17;1.30;;;;;;;2.49;92.59;100221.50;10499231;28;20041;-73
2022/12/31 07:40:31;;;;;;;3.08;1.65;;;;;;;2.41;92.39;100211.00;10498335;28;20403;-79
2022/12/31 07:45:34;;;;;;;1.73;1.40;;;;;;;2.44;93.07;100202.44;10477497;28;20035;-79
2022/12/31 07:50:36;;;;;;;2.88;1.75;;;;;;;2.33;93.34;100203.28;10492784;28;20034;-78
2022/12/31 07:55:38;;;;;;;2.50;1.83;;;;;;;2.38;93.16;100193.38;10519652;28;20055;-75
2022/12/31 08:00:41;;;;;;;2.28;1.52;;;;;;;2.33;93.15;100198.69;10491412;28;20537;-78
2022/12/31 08:06:15;;;;;;;4.20;1.60;;;;;;;2.28;93.08;100179.63;10484350;28;20506;-79
2022/12/31 08:11:55;;;;;;;2.10;1.40;;;;;;;2.23;93.42;100181.38;10522514;28;20406;-78
2022/12/31 08:16:58;;;;;;;5.18;1.83;;;;;;;2.27;93.80;100179.88;10286215;28;20047;-78
2022/12/31 08:22:27;;;;;;;2.80;1.30;;;;;;;2.29;94.17;100164.19;10474405;28;20059;-77
2022/12/31 08:27:57;;;;;;;2.25;1.42;;;;;;;2.31;94.26;100151.25;10518481;28;20044;-76
2022/12/31 08:33:08;;;;;;;2.15;1.40;;;;;;;2.35;93.99;100141.59;10512388;28;20045;-76
2022/12/31 08:38:28;;;;;;;3.33;1.30;;;;;;;2.45;93.26;100116.59;10506219;28;20040;-79
2022/12/31 08:43:50;;;;;;;1.50;1.40;;;;;;;2.44;93.38;100121.19;10507253;28;20048;-79
2022/12/31 08:48:53;;;;;;;2.60;1.70;;;;;;;2.60;93.37;100111.47;10521404;28;20028;-76
2022/12/31 08:53:55;;;;;;;3.47;1.60;;;;;;;2.62;93.31;100077.69;10519630;28;20944;-76
2022/12/31 08:59:06;;;;;;;5.25;1.70;;;;;;;2.62;92.36;100069.56;10473361;28;20411;-78
2022/12/31 09:04:12;;;;;;;1.90;1.42;;;;;;;2.52;91.37;100060.41;10498630;28;20040;-77
2022/12/31 09:09:26;;;;;;;1.70;1.58;;;;;;;2.44;92.04;100025.63;10464217;28;20053;-79
2022/12/31 09:14:40;;;;;;;2.97;1.40;;;;;;;2.47;91.83;100030.53;10493087;28;20056;-79
2022/12/31 09:19:42;;;;;;;1.58;1.25;;;;;;;2.37;91.66;100012.19;10496477;28;20415;-78
2022/12/31 09:24:45;;;;;;;2.08;1.40;;;;;;;2.27;92.09;99998.50;10494112;28;20063;-76
2022/12/31 09:29:47;;;;;;;1.70;1.30;;;;;;;2.18;91.75;99976.41;10509891;28;20051;-79
2022/12/31 09:34:54;;;;;;;3.55;1.33;;;;;;;2.16;92.07;99975.00;10502081;28;20051;-78
2022/12/31 09:39:57;;;;;;;1.48;1.10;;;;;;;2.15;91.30;99968.75;10498723;28;20040;-77
2022/12/31 09:45:27;;;;;;;2.22;1.40;;;;;;;2.11;91.06;99965.72;10509744;28;20050;-78
2022/12/31 09:50:49;;;;;;;2.45;1.20;;;;;;;2.08;91.15;99958.09;10498884;28;20395;-77
2022/12/31 09:55:55;;;;;;;4.22;1.55;;;;;;;2.07;91.68;99955.59;10528612;28;20502;-79
2022/12/31 10:01:03;;;;;;;2.00;1.40;;;;;;;2.09;90.71;99959.75;10519363;28;20051;-77
2022/12/31 10:06:20;;;;;;;3.42;1.60;;;;;;;2.08;90.58;99957.25;10509308;28;20051;-82
2022/12/31 10:11:57;;;;;;;3.45;1.40;;;;;;;2.11;90.96;99952.19;10523275;28;20052;-75
2022/12/31 10:17:14;;;;;;;1.83;1.35;;;;;;;2.07;90.26;99940.19;10501044;28;20422;-72
2022/12/31 10:22:37;;;;;;;4.03;1.48;;;;;;;2.05;90.21;99938.78;10502287;28;20050;-73
2022/12/31 10:27:46;;;;;;;3.15;1.40;;;;;;;2.02;90.17;99910.34;10501444;28;20040;-73
2022/12/31 10:33:09;;;;;;;2.80;1.50;;;;;;;1.97;90.58;99874.25;10500320;28;20762;-72
2022/12/31 10:38:30;;;;;;;1.60;1.30;;;;;;;1.91;90.25;99843.59;10500707;28;20049;-74
2022/12/31 10:43:38;;;;;;;3.70;1.38;;;;;;;1.87;90.23;99814.56;10495460;28;20045;-80
2022/12/31 10:49:08;;;;;;;3.33;1.13;;;;;;;1.87;90.41;99834.31;10521147;28;20036;-73
2022/12/31 10:54:25;;;;;;;4.13;1.50;;;;;;;1.89;90.82;99851.13;10499707;28;20496;-72
2022/12/31 11:00:06;;;;;;;2.63;1.63;;;;;;;1.88;90.27;99875.72;10517360;28;20060;-74
2022/12/31 11:05:46;;;;;;;3.30;1.67;;;;;;;1.88;89.82;99857.59;10515026;28;20036;-73
2022/12/31 11:11:12;;;;;;;2.53;1.10;;;;;;;1.88;89.93;99854.06;10493577;28;20043;-74
2022/12/31 11:16:32;;;;;;;3.22;0.95;;;;;;;1.86;89.68;99848.09;10519701;28;20049;-74
2022/12/31 11:21:52;;;;;;;3.28;1.50;;;;;;;1.85;90.03;99849.97;10522182;28;20041;-73
2022/12/31 11:27:13;;;;;;;2.10;1.13;;;;;;;1.89;89.39;99829.47;10515064;28;20043;-74
2022/12/31 11:32:52;;;;;;;3.03;1.35;;;;;;;1.87;89.21;99826.19;10502008;28;20037;-74
2022/12/31 11:38:09;;;;;;;4.25;1.55;;;;;;;1.91;90.02;99834.63;10499944;28;20062;-72
2022/12/31 11:43:30;;;;;;;7.70;1.50;;;;;;;1.92;90.03;99844.41;10497786;28;20047;-75
2022/12/31 11:48:56;;;;;;;2.13;1.35;;;;;;;1.93;89.56;99836.06;10493157;28;20033;-80
2022/12/31 11:54:20;;;;;;;6.57;1.65;;;;;;;1.95;89.98;99827.69;10490057;28;20059;-76
2022/12/31 11:59:22;;;;;;;4.65;1.88;;;;;;;1.95;90.17;99770.88;10510654;28;20376;-80
2022/12/31 12:04:24;;;;;;;5.78;1.90;;;;;;;1.94;89.45;99750.31;10527196;28;20515;-77
2022/12/31 12:09:30;;;;;;;6.45;1.60;;;;;;;1.94;90.25;99745.72;10510068;28;20402;-78
2022/12/31 12:14:40;;;;;;;4.15;1.40;;;;;;;1.92;90.33;99707.28;10500131;28;20044;-78
2022/12/31 12:19:52;;;;;;;4.53;1.63;;;;;;;1.95;90.81;99731.13;10524861;28;20033;-76
2022/12/31 12:25:01;;;;;;;2.95;1.35;;;;;;;1.99;89.99;99724.13;10507702;28;20055;-77
2022/12/31 12:30:11;;;;;;;3.78;1.77;;;;;;;2.00;90.35;99712.25;10507570;28;20053;-78
2022/12/31 12:35:15;;;;;;;4.00;1.92;;;;;;;2.01;90.19;99722.00;10509811;28;20051;-75
2022/12/31 12:40:20;;;;;;;2.45;1.73;;;;;;;2.02;90.19;99720.13;10510810;28;20048;-78
2022/12/31 12:45:23;;;;;;;4.20;1.77;;;;;;;2.01;91.01;99704.94;10521956;28;20495;-79
2022/12/31 12:50:37;;;;;;;2.80;1.15;;;;;;;2.01;90.95;99713.88;10497120;28;20044;-79
2022/12/31 12:56:08;;;;;;;4.43;2.13;;;;;;;2.04;91.33;99718.78;10518512;28;20052;-78
2022/12/31 13:01:36;;;;;;;2.90;1.20;;;;;;;2.05;91.39;99719.63;10503675;28;20049;-77
2022/12/31 13:06:57;;;;;;;3.73;0.80;;;;;;;2.05;91.57;99723.13;10501576;28;20028;-77
2022/12/31 13:12:23;;;;;;;3.38;1.63;;;;;;;2.06;91.87;99716.66;10503454;28;20475;-76
2022/12/31 13:17:38;;;;;;;2.03;1.40;;;;;;;2.07;91.82;99703.94;10485812;28;20041;-77
2022/12/31 13:22:48;;;;;;;1.50;1.35;;;;;;;2.09;91.92;99705.38;10519101;28;20059;-76
2022/12/31 13:27:53;;;;;;;3.03;1.80;;;;;;;2.13;92.16;99694.84;10531645;28;20422;-76
2022/12/31 13:33:03;;;;;;;4.93;1.58;;;;;;;2.11;91.92;99665.34;10510889;28;20049;-74
2022/12/31 13:38:13;;;;;;;2.65;1.38;;;;;;;2.08;91.92;99665.84;10509985;28;20058;-75
2022/12/31 13:43:33;;;;;;;1.85;1.08;;;;;;;2.11;92.03;99659.94;10474476;28;20057;-75
2022/12/31 13:48:41;;;;;;;2.55;1.98;;;;;;;2.14;92.84;99661.31;10492243;28;20061;-76
2022/12/31 13:53:59;;;;;;;2.92;1.63;;;;;;;2.14;92.30;99661.31;10474382;28;20048;-75
2022/12/31 13:59:47;;;;;;;3.10;1.80;;;;;;;2.12;93.38;99655.34;10474653;28;20048;-76
2022/12/31 14:04:53;;;;;;;5.53;1.88;;;;;;;2.11;93.39;99640.16;10400092;28;20879;-75
2022/12/31 14:09:55;;;;;;;3.53;2.00;;;;;;;2.11;93.43;99637.47;10459684;28;20131;-76
2022/12/31 14:15:19;;;;;;;2.25;1.73;;;;;;;2.09;93.68;99640.41;10491783;28;20067;-75
2022/12/31 14:20:41;;;;;;;5.65;2.67;;;;;;;2.05;94.77;99660.91;10507951;28;20059;-76
2022/12/31 14:25:57;;;;;;;3.53;2.20;;;;;;;2.00;95.49;99646.50;10532232;28;20634;-75
2022/12/31 14:31:27;;;;;;;4.70;2.53;;;;;;;1.96;96.22;99664.31;10512869;28;20048;-76
2022/12/31 14:37:20;;;;;;;4.55;2.25;;;;;;;1.97;96.37;99652.41;10531457;28;20045;-75
2022/12/31 14:42:30;;;;;;;3.70;1.90;;;;;;;1.97;96.47;99664.06;10456505;28;20049;-75
2022/12/31 14:47:43;;;;;;;2.83;2.00;;;;;;;1.97;96.71;99660.53;10502057;28;20040;-75
2022/12/31 14:52:51;;;;;;;3.50;1.70;;;;;;;1.99;97.16;99634.84;10490369;28;20041;-76
2022/12/31 14:57:54;;;;;;;;;;;;;;;2.03;96.98;99641.41;10472507;28;20423;-74
2022/12/31 15:02:58;;;;;;;2.72;1.88;;;;;;;2.07;96.48;99625.47;10512050;28;20318;-75
2022/12/31 15:08:18;;;;;;;2.35;1.55;;;;;;;2.10;96.71;99633.13;10500214;28;20095;-75
2022/12/31 15:13:30;;;;;;;4.63;1.75;;;;;;;2.10;96.28;99615.00;10475451;28;20049;-77
2022/12/31 15:18:49;;;;;;;2.42;1.77;;;;;;;2.11;96.98;99613.91;10530151;28;20052;-76
2022/12/31 15:23:51;;;;;;;;;;;;;;;2.14;96.41;99612.59;10507873;28;20502;-76
2022/12/31 15:29:04;;;;;;;2.90;1.90;;;;;;;2.18;96.69;99615.63;10471215;28;19921;-75
2022/12/31 15:34:23;;;;;;;2.58;1.85;;;;;;;2.17;96.15;99611.28;10471960;28;20753;-75
2022/12/31 15:39:38;;;;;;;2.17;1.75;;;;;;;2.18;95.97;99607.50;10510995;28;20048;-75
2022/12/31 15:44:50;;;;;;;3.17;1.77;;;;;;;2.19;96.33;99601.00;10517870;28;20051;-76
2022/12/31 15:49:52;;;;;;;5.30;2.67;;;;;;;2.20;96.76;99594.53;10529189;28;20436;-76
2022/12/31 15:54:55;;;;;;;3.13;1.40;;;;;;;2.15;96.80;99589.06;10528773;28;20059;-75
2022/12/31 15:59:59;;;;;;;3.63;2.03;;;;;;;2.14;96.99;99577.41;10528533;28;20053;-75
2022/12/31 16:05:01;;;;;;;2.15;1.80;;;;;;;2.15;97.68;99578.22;10488824;28;20048;-75
2022/12/31 16:10:04;;;;;;;1.63;1.30;;;;;;;2.16;97.31;99563.63;10486112;28;20056;-76
2022/12/31 16:15:12;;;;;;;2.35;1.17;;;;;;;2.18;97.75;99556.06;10466212;28;20056;-75
2022/12/31 16:20:24;;;;;;;1.38;1.10;;;;;;;2.18;96.95;99559.59;10498595;28;20053;-76
2022/12/31 16:25:27;;;;;;;1.95;1.52;;;;;;;2.20;97.62;99543.91;10486217;28;20040;-75
2022/12/31 16:30:32;;;;;;;2.85;1.60;;;;;;;2.21;98.03;99540.16;10486314;28;20518;-75
2022/12/31 16:35:35;;;;;;;2.35;1.38;;;;;;;2.25;97.79;99538.56;10468304;28;20053;-75
2022/12/31 16:40:42;;;;;;;2.85;1.77;;;;;;;2.27;97.22;99544.56;10506012;28;20063;-76
2022/12/31 16:45:44;;;;;;;2.95;1.55;;;;;;;2.29;97.79;99509.13;10527506;28;20503;-75
2022/12/31 16:50:50;;;;;;;2.88;1.38;;;;;;;2.31;97.44;99515.91;10530202;28;20044;-76
2022/12/31 16:55:59;;;;;;;2.13;1.58;;;;;;;2.34;97.14;99518.09;10541350;28;20036;-77
2022/12/31 17:01:11;;;;;;;2.63;1.65;;;;;;;2.37;97.57;99533.84;10537237;28;20036;-76
2022/12/31 17:06:16;;;;;;;4.65;2.13;;;;;;;2.52;97.53;99525.06;10539089;28;20052;-76
2022/12/31 17:11:32;;;;;;;5.15;2.55;;;;;;;2.71;97.54;99522.78;10540562;28;20072;-75
2022/12/31 17:16:37;;;;;;;3.70;1.80;;;;;;;2.80;96.58;99532.09;10528022;28;20063;-75
2022/12/31 17:21:45;;;;;;;2.90;1.70;;;;;;;2.82;96.57;99512.88;10499075;28;20048;-76
2022/12/31 17:26:47;;;;;;;;;;;;;;;2.86;96.11;99500.44;10482005;28;20053;-75
2022/12/31 17:32:29;;;;;;;4.38;2.42;;;;;;;2.90;96.47;99499.66;10480905;28;19943;-74
2022/12/31 17:37:32;;;;;;;2.08;1.73;;;;;;;2.85;95.40;99496.09;10519693;28;20052;-76
2022/12/31 17:42:36;;;;;;;3.78;2.40;;;;;;;2.87;95.90;99483.09;10498822;28;20056;-75
2022/12/31 17:47:40;;;;;;;3.78;2.50;;;;;;;2.82;95.67;99491.19;10480637;28;20048;-76
2022/12/31 17:52:42;;;;;;;2.33;1.92;;;;;;;2.71;95.84;99485.69;10463569;28;20059;-76
2022/12/31 17:57:53;;;;;;;5.47;2.15;;;;;;;2.66;95.80;99479.41;10505612;28;20122;-76
2022/12/31 18:02:55;;;;;;;5.05;2.40;;;;;;;2.61;96.21;99468.56;10495859;28;20045;-76
2022/12/31 18:07:57;;;;;;;2.88;1.95;;;;;;;2.56;96.63;99454.94;10491544;28;20056;-76
2022/12/31 18:13:00;;;;;;;3.25;2.22;;;;;;;2.54;96.81;99446.25;10491454;28;20044;-76
2022/12/31 18:18:18;;;;;;;3.03;2.60;;;;;;;2.51;97.18;99434.06;10458597;28;20492;-76
2022/12/31 18:23:29;;;;;;;2.95;1.95;;;;;;;2.53;97.72;99436.50;10491043;28;20056;-75
2022/12/31 18:28:32;;;;;;;4.15;2.95;;;;;;;2.51;97.80;99425.94;10473041;28;20056;-76
2022/12/31 18:33:34;;;;;;;4.40;1.95;;;;;;;2.52;98.99;99432.19;10491328;28;20068;-78
2022/12/31 18:38:36;;;;;;;2.20;1.70;;;;;;;2.51;98.83;99427.84;10513190;28;20051;-76
2022/12/31 18:43:39;;;;;;;3.35;1.80;;;;;;;2.51;98.66;99423.22;10529576;28;20048;-75
2022/12/31 18:48:41;;;;;;;5.13;2.75;;;;;;;2.52;99.04;99419.44;10531803;28;20070;-75
2022/12/31 18:53:43;;;;;;;3.20;2.20;;;;;;;2.54;99.58;99425.41;10529645;28;20040;-76
2022/12/31 18:58:46;;;;;;;4.22;2.47;;;;;;;2.54;98.69;99409.19;10530804;28;20060;-76
2022/12/31 19:03:48;;;;;;;3.45;2.03;;;;;;;2.56;99.01;99415.16;10523323;28;20510;-75
2022/12/31 19:08:51;;;;;;;4.90;2.47;;;;;;;2.57;99.68;99433.03;10529794;28;20069;-76
2022/12/31 19:13:53;;;;;;;2.97;2.25;;;;;;;2.56;99.42;99425.97;10528887;28;20045;-75
2022/12/31 19:18:56;;;;;;;2.78;1.70;;;;;;;2.58;99.06;99415.69;10530389;28;20048;-75
2022/12/31 19:23:58;;;;;;;3.83;2.03;;;;;;;2.58;99.55;99409.47;10529798;28;20057;-75
2022/12/31 19:29:00;;;;;;;3.63;2.38;;;;;;;2.58;99.82;99406.75;10530046;28;20053;-76
2022/12/31 19:34:03;;;;;;;4.68;2.25;;;;;;;2.57;99.99;99397.81;10521999;28;20060;-76
2022/12/31 19:39:06;;;;;;;3.97;1.42;;;;;;;2.54;100.00;99401.06;10487882;28;20052;-75
2022/12/31 19:44:14;;;;;;;5.47;2.95;;;;;;;2.52;100.00;99394.25;10488273;28;20052;-75
2022/12/31 19:49:16;;;;;;;2.58;1.63;;;;;;;2.52;99.64;99400.50;10517668;28;20044;-76
2022/12/31 19:54:19;;;;;;;3.80;2.00;;;;;;;2.55;100.00;99397.25;10527313;28;20499;-76
2022/12/31 19:59:21;;;;;;;4.05;2.42;;;;;;;2.56;100.00;99404.31;10528493;28;20074;-77
2022/12/31 20:04:23;;;;;;;4.50;2.63;;;;;;;2.55;100.00;99383.72;10528539;28;20514;-75
2022/12/31 20:09:25;;;;;;;2.30;1.60;;;;;;;2.58;100.00;99372.38;10528104;28;20062;-75
2022/12/31 20:14:28;;;;;;;3.90;2.33;;;;;;;2.60;100.00;99367.53;10495103;28;20053;-75
2022/12/31 20:19:30;;;;;;;3.67;2.53;;;;;;;2.60;100.00;99347.75;10486583;28;20033;-76
2022/12/31 20:24:32;;;;;;;3.17;2.15;;;;;;;2.62;100.00;99351.84;10468663;28;20503;-75
2022/12/31 20:29:35;;;;;;;5.80;2.90;;;;;;;2.63;100.00;99341.81;10485172;28;20056;-76
2022/12/31 20:34:37;;;;;;;5.82;2.60;;;;;;;2.65;100.00;99336.97;10485988;28;20055;-76
2022/12/31 20:39:39;;;;;;;5.13;2.80;;;;;;;2.65;100.00;99318.81;10527196;28;20059;-75
2022/12/31 20:44:41;;;;;;;4.85;2.30;;;;;;;2.64;100.00;99298.22;10528057;28;20048;-75
2022/12/31 20:49:44;;;;;;;6.68;2.75;;;;;;;2.64;100.00;99300.94;10527144;28;20451;-76
2022/12/31 20:54:46;;;;;;;5.97;2.67;;;;;;;2.66;100.00;99268.16;10525822;28;20040;-75
2022/12/31 20:59:48;;;;;;;3.38;2.08;;;;;;;2.67;100.00;99261.69;10527155;28;20059;-75
2022/12/31 21:04:50;;;;;;;3.55;2.28;;;;;;;2.68;100.00;99242.44;10520243;28;20507;-75
2022/12/31 21:09:53;;;;;;;5.68;2.30;;;;;;;2.68;100.00;99236.22;10525975;28;20048;-75
2022/12/31 21:14:55;;;;;;;5.95;3.50;;;;;;;2.67;100.00;99235.41;10524351;28;20055;-76
2022/12/31 21:19:57;;;;;;;7.30;3.13;;;;;;;2.68;100.00;99228.09;10526834;28;20049;-75
2022/12/31 21:25:00;;;;;;;7.18;3.17;;;;;;;2.69;100.00;99238.66;10526167;28;20049;-76
2022/12/31 21:30:03;;;;;;;7.63;5.00;;;;;;;2.71;100.00;99235.69;10517065;28;20045;-75
2022/12/31 21:35:06;;;;;;;7.88;4.43;;;;;;;2.72;100.00;99218.34;10484872;28;20064;-76
2022/12/31 21:40:09;;;;;;;10.25;6.18;;;;;;;2.74;100.00;99218.91;10489205;28;20522;-75
2022/12/31 21:45:11;;;;;;;7.10;3.60;;;;;;;2.77;100.00;99220.25;10493193;28;20527;-76
2022/12/31 21:50:13;;;;;;;9.57;6.05;;;;;;;2.77;100.00;99206.72;10492582;28;20053;-77
2022/12/31 22:06:09;;;;;;;4.80;2.10;;;;;;;2.79;100.00;99191.84;10491445;28;20052;-76
2022/12/31 22:11:13;;;;;;;5.65;3.47;;;;;;;2.81;100.00;99186.19;10475130;28;20492;-76
2022/12/31 22:16:17;;;;;;;8.13;4.28;;;;;;;2.80;100.00;99162.88;10491322;28;20053;-75
2022/12/31 22:21:23;;;;;;;6.18;3.65;;;;;;;2.80;100.00;99149.34;10490875;28;20060;-75
2022/12/31 22:26:27;;;;;;;9.10;4.90;;;;;;;2.79;100.00;99145.00;10491224;28;20045;-76
2022/12/31 22:31:30;;;;;;;9.63;5.43;;;;;;;2.80;100.00;99154.75;10473930;28;20052;-76
2022/12/31 22:36:32;;;;;;;8.07;5.60;;;;;;;2.81;100.00;99149.06;10490709;28;20052;-75
2022/12/31 22:41:34;;;;;;;11.75;4.47;;;;;;;2.83;100.00;99148.78;10490298;28;20053;-76
2022/12/31 22:46:38;;;;;;;5.85;3.28;;;;;;;2.85;100.00;99149.34;10490813;28;20048;-75
2022/12/31 22:51:40;;;;;;;5.95;4.20;;;;;;;2.88;99.81;99157.75;10488668;28;20052;-76
2022/12/31 22:56:42;;;;;;;7.50;3.58;;;;;;;2.93;99.80;99167.75;10489868;28;20060;-74
2022/12/31 23:01:44;;;;;;;8.68;3.97;;;;;;;2.95;100.00;99154.75;10491391;28;20049;-76
2022/12/31 23:06:46;;;;;;;10.48;4.65;;;;;;;2.96;99.56;99143.69;10526305;28;20051;-75
2022/12/31 23:11:49;;;;;;;5.65;3.25;;;;;;;2.98;99.76;99148.84;10489414;28;20059;-75
2022/12/31 23:27:33;;;;;;;4.78;3.58;;;;;;;2.97;99.53;99112.00;10488490;28;20045;-76
2022/12/31 23:32:35;;;;;;;2.72;2.03;;;;;;;2.98;99.17;99119.03;10487708;28;20060;-77
2022/12/31 23:37:37;;;;;;;8.25;3.70;;;;;;;2.93;99.30;99119.00;10487052;28;20060;-75
2022/12/31 23:42:39;;;;;;;4.82;2.67;;;;;;;2.91;98.87;99134.72;10487854;28;20075;-75
2022/12/31 23:47:41;;;;;;;2.13;1.90;;;;;;;2.86;100.00;99121.97;10488395;28;20495;-75
2022/12/31 23:52:43;;;;;;;2.60;1.98;;;;;;;2.86;99.99;99124.69;10487396;28;20064;-75
2022/12/31 23:57:46;;;;;;;4.97;2.55;;;;;;;2.85;100.00;99104.09;10487909;28;20338;-75
